Time;durP1;ratioP1;P1;durP2;ratioP2;P2;SDS_P1;SDS_P2;PMS_P1;PMS_P2;Temp;Humidity;BMP_temperature;BMP_pressure;BME280_temperature;BME280_humidity;BME280_pressure;Samples;Min_cycle;Max_cycle;Signal;HPM_P1;HPM_P2
2022/11/05 00:09:28;;;;;;;1.30;0.50;;;;;;;;;;103526;1307;24192;-85
2022/11/05 00:09:39;;;;;;;2.50;1.10;;;;;;;;;;103552;1304;22497;-87
2022/11/05 00:17:39;;;;;;;1.90;0.80;;;;;;;;;;103765;1304;22552;-86
2022/11/05 00:20:05;;;;;;;1.30;0.60;;;;;;;;;;103698;1288;22601;-83
2022/11/05 00:25:18;;;;;;;1.80;0.70;;;;;;;;;;103526;1307;23849;-83
2022/11/05 00:27:46;;;;;;;3.30;0.80;;;;;;;;;;103786;1307;24282;-81
2022/11/05 00:30:16;;;;;;;2.40;0.50;;;;;;;;;;103519;1304;22452;-83
2022/11/05 00:32:44;;;;;;;1.50;0.60;;;;;;;;;;103636;1304;25315;-79
2022/11/05 00:35:11;;;;;;;1.40;0.50;;;;;;;;;;103744;1304;24318;-81
2022/11/05 00:37:38;;;;;;;1.50;0.50;;;;;;;;;;103761;1304;22457;-82
2022/11/05 00:40:05;;;;;;;1.50;0.60;;;;;;;;;;103740;1307;23755;-80
2022/11/05 00:45:21;;;;;;;2.20;0.50;;;;;;;;;;103358;1307;25630;-79
2022/11/05 00:50:35;;;;;;;1.30;0.40;;;;;;;;;;103485;1304;22491;-85
2022/11/05 00:53:02;;;;;;;1.90;0.50;;;;;;;;;;103557;1304;22486;-82
2022/11/05 00:55:39;;;;;;;1.20;0.50;;;;;;;;;;103743;1304;22584;-85
2022/11/05 00:58:11;;;;;;;1.30;0.40;;;;;;;;;;103801;1307;22466;-85
2022/11/05 01:00:39;;;;;;;1.80;0.50;;;;;;;;;;103792;1295;24433;-81
2022/11/05 01:03:07;;;;;;;1.90;0.40;;;;;;;;;;103575;1307;23827;-81
2022/11/05 01:05:37;;;;;;;3.10;0.50;;;;;;;;;;103783;1305;22942;-80
2022/11/05 01:08:04;;;;;;;2.10;0.60;;;;;;;;;;103506;1307;24195;-80
2022/11/05 01:10:31;;;;;;;1.50;0.50;;;;;;;;;;103449;1306;24237;-85
2022/11/05 01:12:58;;;;;;;1.70;0.50;;;;;;;;;;103767;1304;25279;-80
2022/11/05 01:15:25;;;;;;;2.30;0.60;;;;;;;;;;103778;1304;22589;-86
2022/11/05 01:17:51;;;;;;;2.00;0.50;;;;;;;;;;103789;1304;25305;-80
2022/11/05 01:20:18;;;;;;;2.30;0.60;;;;;;;;;;103749;1304;24343;-84
2022/11/05 01:22:45;;;;;;;3.00;0.50;;;;;;;;;;103543;1295;22587;-83
2022/11/05 01:25:11;;;;;;;2.40;0.50;;;;;;;;;;103479;1284;25321;-80
2022/11/05 01:27:38;;;;;;;2.50;0.40;;;;;;;;;;103484;1307;24342;-86
2022/11/05 01:30:06;;;;;;;1.30;0.40;;;;;;;;;;103526;1307;22466;-84
2022/11/05 01:32:33;;;;;;;1.10;0.40;;;;;;;;;;103510;1304;22461;-87
2022/11/05 01:35:00;;;;;;;2.40;0.50;;;;;;;;;;103760;1307;25256;-82
2022/11/05 01:37:27;;;;;;;1.30;0.60;;;;;;;;;;103525;1304;24047;-82
2022/11/05 01:39:53;;;;;;;3.40;0.50;;;;;;;;;;103727;1304;22467;-81
2022/11/05 01:42:21;;;;;;;1.70;0.60;;;;;;;;;;103651;1305;22454;-82
2022/11/05 01:44:48;;;;;;;1.60;0.60;;;;;;;;;;103489;1297;26473;-84
2022/11/05 01:47:37;;;;;;;1.50;0.50;;;;;;;;;;103540;1307;25312;-84
2022/11/05 01:50:08;;;;;;;1.70;0.60;;;;;;;;;;103503;1297;22446;-83
2022/11/05 01:52:35;;;;;;;1.50;0.50;;;;;;;;;;103390;1304;22721;-83
2022/11/05 01:55:03;;;;;;;1.60;0.70;;;;;;;;;;103530;1304;22657;-80
2022/11/05 01:57:30;;;;;;;1.00;0.50;;;;;;;;;;103777;1304;24196;-83
2022/11/05 01:59:58;;;;;;;1.70;0.60;;;;;;;;;;103548;1304;25278;-80
2022/11/05 02:02:25;;;;;;;1.80;0.60;;;;;;;;;;103484;1277;25255;-84
2022/11/05 02:04:54;;;;;;;1.10;0.50;;;;;;;;;;103738;1295;24168;-83
2022/11/05 02:07:22;;;;;;;2.40;0.80;;;;;;;;;;103511;1306;23469;-81
2022/11/05 02:10:08;;;;;;;1.30;0.50;;;;;;;;;;103728;1296;22463;-87
2022/11/05 02:12:36;;;;;;;2.50;0.80;;;;;;;;;;103774;1297;25205;-81
2022/11/05 02:15:03;;;;;;;1.60;0.70;;;;;;;;;;103835;1289;22417;-79
2022/11/05 02:17:38;;;;;;;1.10;0.50;;;;;;;;;;103859;1303;25208;-83
2022/11/05 02:20:11;;;;;;;1.70;0.50;;;;;;;;;;103715;1305;25309;-85
2022/11/05 02:22:47;;;;;;;2.00;0.70;;;;;;;;;;103487;1306;24510;-84
2022/11/05 02:25:29;;;;;;;2.60;0.80;;;;;;;;;;103481;1306;24397;-80
2022/11/05 02:27:55;;;;;;;1.50;0.60;;;;;;;;;;103467;1306;22454;-83
2022/11/05 02:30:31;;;;;;;1.20;0.40;;;;;;;;;;103472;1307;22457;-82
2022/11/05 02:32:58;;;;;;;1.00;0.50;;;;;;;;;;103504;1301;23185;-80
2022/11/05 02:35:32;;;;;;;1.30;0.50;;;;;;;;;;103776;1307;24186;-81
2022/11/05 02:38:07;;;;;;;2.70;0.70;;;;;;;;;;103482;1307;22448;-86
2022/11/05 02:40:59;;;;;;;1.20;0.50;;;;;;;;;;103802;1305;26502;-81
2022/11/05 02:43:29;;;;;;;2.00;0.40;;;;;;;;;;103496;1307;22583;-83
2022/11/05 02:46:26;;;;;;;1.60;0.30;;;;;;;;;;103505;1302;24257;-85
2022/11/05 02:48:53;;;;;;;0.80;0.40;;;;;;;;;;103112;1313;24240;-79
2022/11/05 02:51:37;;;;;;;3.70;0.60;;;;;;;;;;103137;1311;22476;-87
2022/11/05 02:54:06;;;;;;;1.60;0.50;;;;;;;;;;103171;1310;22711;-80
2022/11/05 02:56:35;;;;;;;2.00;0.40;;;;;;;;;;103189;1310;24285;-79
2022/11/05 02:59:02;;;;;;;1.30;0.40;;;;;;;;;;103174;1310;22534;-81
2022/11/05 03:01:28;;;;;;;1.90;0.70;;;;;;;;;;103113;1313;24274;-80
2022/11/05 03:03:57;;;;;;;3.70;0.60;;;;;;;;;;102918;1312;22703;-78
2022/11/05 03:06:35;;;;;;;1.90;0.50;;;;;;;;;;102913;1304;22720;-84
2022/11/05 03:09:05;;;;;;;0.90;0.30;;;;;;;;;;102955;1313;22474;-80
2022/11/05 03:11:38;;;;;;;1.30;0.40;;;;;;;;;;102976;1311;22517;-86
2022/11/05 03:14:16;;;;;;;3.70;0.60;;;;;;;;;;103020;1312;24651;-83
2022/11/05 03:16:48;;;;;;;1.70;0.60;;;;;;;;;;103091;1313;25226;-86
2022/11/05 03:19:25;;;;;;;1.90;0.50;;;;;;;;;;103213;1310;22529;-82
2022/11/05 03:21:55;;;;;;;4.10;0.70;;;;;;;;;;103237;1310;25430;-80
2022/11/05 03:24:32;;;;;;;2.00;0.50;;;;;;;;;;103156;1301;22612;-84
2022/11/05 03:27:04;;;;;;;2.20;0.70;;;;;;;;;;103492;1308;23847;-80
2022/11/05 03:29:43;;;;;;;2.00;0.70;;;;;;;;;;103564;1305;22575;-86
2022/11/05 03:32:10;;;;;;;1.60;0.80;;;;;;;;;;103540;1307;21949;-80
2022/11/05 03:34:40;;;;;;;3.30;0.80;;;;;;;;;;103772;1304;22462;-86
2022/11/05 03:37:07;;;;;;;2.00;0.70;;;;;;;;;;103774;1304;22591;-80
2022/11/05 03:39:45;;;;;;;1.90;0.90;;;;;;;;;;103586;1301;22472;-86
2022/11/05 03:42:13;;;;;;;2.30;0.80;;;;;;;;;;103550;1307;25447;-82
2022/11/05 03:44:43;;;;;;;2.90;0.80;;;;;;;;;;103773;1306;22471;-85
2022/11/05 03:47:12;;;;;;;2.40;0.80;;;;;;;;;;103484;1306;22459;-82
2022/11/05 03:49:47;;;;;;;1.80;0.60;;;;;;;;;;103790;1307;23852;-85
2022/11/05 03:52:16;;;;;;;1.80;0.70;;;;;;;;;;103507;1306;25410;-79
2022/11/05 03:54:43;;;;;;;2.50;1.00;;;;;;;;;;103533;1304;22458;-80
2022/11/05 03:57:30;;;;;;;2.40;0.80;;;;;;;;;;103844;1304;22476;-84
2022/11/05 03:59:57;;;;;;;2.20;0.80;;;;;;;;;;103778;1310;22461;-81
2022/11/05 04:02:25;;;;;;;2.20;0.90;;;;;;;;;;103729;1294;22477;-86
2022/11/05 04:04:52;;;;;;;2.80;0.80;;;;;;;;;;103790;1304;24252;-85
2022/11/05 04:17:05;;;;;;;2.10;0.80;;;;;;;;;;103633;1304;22593;-86
2022/11/05 04:18:22;;;;;;;2.80;0.90;;;;;;;;;;103815;1307;24349;-83
2022/11/05 04:26:22;;;;;;;5.60;1.00;;;;;;;;;;103570;1307;22507;-83
2022/11/05 04:31:35;;;;;;;2.90;1.10;;;;;;;;;;103453;1307;25295;-80
2022/11/05 04:34:02;;;;;;;2.70;1.10;;;;;;;;;;103394;1307;22576;-86
2022/11/05 04:36:29;;;;;;;3.40;1.00;;;;;;;;;;103489;1307;24493;-86
2022/11/05 04:38:55;;;;;;;3.10;0.90;;;;;;;;;;103812;1295;26438;-83
2022/11/05 04:41:22;;;;;;;3.10;1.00;;;;;;;;;;103769;1289;23334;-82
2022/11/05 04:43:49;;;;;;;4.40;1.30;;;;;;;;;;103489;1302;22471;-83
2022/11/05 04:46:15;;;;;;;3.40;1.20;;;;;;;;;;103417;1306;22460;-83
2022/11/05 04:48:42;;;;;;;4.30;1.10;;;;;;;;;;103493;1307;22556;-82
2022/11/05 04:51:09;;;;;;;4.00;1.20;;;;;;;;;;103759;1305;26538;-84
2022/11/05 04:53:35;;;;;;;3.10;1.20;;;;;;;;;;103494;1306;24321;-80
2022/11/05 04:56:14;;;;;;;3.20;1.10;;;;;;;;;;103530;1302;22857;-83
2022/11/05 04:58:41;;;;;;;4.40;1.20;;;;;;;;;;103780;1304;22461;-86
2022/11/05 05:01:15;;;;;;;2.70;1.00;;;;;;;;;;103570;1310;22456;-84
2022/11/05 05:03:42;;;;;;;2.80;0.90;;;;;;;;;;103778;1304;24307;-86
2022/11/05 05:06:09;;;;;;;2.40;0.90;;;;;;;;;;103675;1307;22657;-86
2022/11/05 05:08:35;;;;;;;2.90;0.90;;;;;;;;;;103501;1307;23863;-79
2022/11/05 05:11:03;;;;;;;1.70;0.70;;;;;;;;;;103517;1309;22568;-81
2022/11/05 05:13:29;;;;;;;1.80;0.80;;;;;;;;;;103780;1307;24432;-81
2022/11/05 05:15:56;;;;;;;3.70;1.30;;;;;;;;;;103761;1304;22459;-86
2022/11/05 05:18:25;;;;;;;3.60;0.90;;;;;;;;;;103555;1310;25289;-79
2022/11/05 05:23:41;;;;;;;2.40;0.80;;;;;;;;;;103723;1309;22670;-85
2022/11/05 05:26:08;;;;;;;3.10;0.80;;;;;;;;;;103509;1309;25668;-85
2022/11/05 05:28:35;;;;;;;2.30;0.90;;;;;;;;;;103506;1309;22474;-80
2022/11/05 05:31:01;;;;;;;1.90;0.60;;;;;;;;;;103546;1287;22482;-81
2022/11/05 05:33:28;;;;;;;2.30;0.60;;;;;;;;;;103518;1300;22969;-79
2022/11/05 05:35:58;;;;;;;3.00;0.40;;;;;;;;;;103481;1309;25437;-79
2022/11/05 05:38:25;;;;;;;2.40;0.70;;;;;;;;;;103447;1310;25237;-80
2022/11/05 05:40:51;;;;;;;1.80;0.50;;;;;;;;;;103490;1310;24318;-86
2022/11/05 05:43:18;;;;;;;1.50;0.50;;;;;;;;;;103812;1304;24234;-84
2022/11/05 05:45:45;;;;;;;1.40;0.70;;;;;;;;;;103508;1310;23981;-82
2022/11/05 05:48:11;;;;;;;1.50;0.60;;;;;;;;;;103542;1298;24325;-78
2022/11/05 05:50:38;;;;;;;2.10;0.70;;;;;;;;;;103496;1305;24542;-85
2022/11/05 05:53:07;;;;;;;2.30;0.60;;;;;;;;;;103530;1309;24331;-84
2022/11/05 05:55:34;;;;;;;2.10;0.80;;;;;;;;;;103545;1309;25306;-80
2022/11/05 05:58:01;;;;;;;2.20;0.90;;;;;;;;;;103489;1307;22593;-86
2022/11/05 06:00:27;;;;;;;1.70;0.50;;;;;;;;;;103400;1295;24081;-78
2022/11/05 06:02:55;;;;;;;2.00;0.80;;;;;;;;;;103430;1307;21725;-80
2022/11/05 06:05:21;;;;;;;3.90;1.00;;;;;;;;;;103455;1307;25290;-83
2022/11/05 06:07:55;;;;;;;5.30;0.70;;;;;;;;;;103488;1312;24243;-79
2022/11/05 06:10:22;;;;;;;3.40;0.70;;;;;;;;;;103473;1312;22463;-87
2022/11/05 06:12:49;;;;;;;3.80;1.20;;;;;;;;;;103480;1306;25204;-86
2022/11/05 06:15:16;;;;;;;4.70;1.40;;;;;;;;;;103436;1307;25329;-80
2022/11/05 06:17:43;;;;;;;4.10;1.00;;;;;;;;;;103480;1299;24428;-87
2022/11/05 06:20:10;;;;;;;2.70;1.20;;;;;;;;;;103482;1306;22953;-84
2022/11/05 06:22:37;;;;;;;4.40;1.20;;;;;;;;;;103491;1306;25252;-82
2022/11/05 06:25:04;;;;;;;6.00;1.20;;;;;;;;;;103457;1307;22582;-79
2022/11/05 06:27:31;;;;;;;7.20;2.00;;;;;;;;;;103411;1306;22419;-84
2022/11/05 06:29:58;;;;;;;4.00;1.40;;;;;;;;;;103445;1291;22563;-82
2022/11/05 06:32:25;;;;;;;3.90;1.20;;;;;;;;;;103327;1306;22475;-83
2022/11/05 06:34:51;;;;;;;4.90;1.60;;;;;;;;;;103425;1307;22464;-86
2022/11/05 06:37:18;;;;;;;5.50;2.00;;;;;;;;;;103441;1306;22903;-85
2022/11/05 06:39:44;;;;;;;5.40;1.70;;;;;;;;;;103521;1307;24217;-82
2022/11/05 06:42:11;;;;;;;4.30;1.40;;;;;;;;;;103492;1306;23841;-87
2022/11/05 06:44:38;;;;;;;2.80;1.00;;;;;;;;;;103477;1299;22464;-83
2022/11/05 06:47:04;;;;;;;4.80;1.60;;;;;;;;;;103489;1307;22478;-81
2022/11/05 06:49:31;;;;;;;4.70;2.00;;;;;;;;;;103470;1306;25244;-80
2022/11/05 06:51:58;;;;;;;5.40;2.40;;;;;;;;;;103482;1294;23192;-86
2022/11/05 06:54:25;;;;;;;4.70;1.90;;;;;;;;;;103483;1306;22507;-86
2022/11/05 06:56:52;;;;;;;5.80;2.20;;;;;;;;;;103509;1309;24493;-82
2022/11/05 06:59:18;;;;;;;4.60;2.00;;;;;;;;;;103489;1306;25535;-87
2022/11/05 07:01:45;;;;;;;5.00;1.70;;;;;;;;;;103464;1307;24269;-81
2022/11/05 07:04:12;;;;;;;5.70;2.50;;;;;;;;;;103564;1298;22473;-81
2022/11/05 07:06:38;;;;;;;5.80;2.70;;;;;;;;;;103498;1307;22484;-82
2022/11/05 07:09:05;;;;;;;6.40;2.40;;;;;;;;;;103432;1306;22470;-82
2022/11/05 07:11:31;;;;;;;7.30;2.80;;;;;;;;;;103521;1306;25323;-82
2022/11/05 07:14:00;;;;;;;5.80;2.60;;;;;;;;;;103520;1306;24996;-84
2022/11/05 07:16:26;;;;;;;6.00;2.50;;;;;;;;;;103480;1306;22422;-87
2022/11/05 07:18:54;;;;;;;4.60;2.10;;;;;;;;;;103447;1292;25290;-84
2022/11/05 07:21:21;;;;;;;5.80;2.20;;;;;;;;;;103510;1298;22593;-87
2022/11/05 07:23:48;;;;;;;5.50;2.30;;;;;;;;;;103476;1307;24356;-82
2022/11/05 07:26:14;;;;;;;4.90;1.90;;;;;;;;;;103516;1306;22699;-82
2022/11/05 07:28:41;;;;;;;3.90;1.50;;;;;;;;;;103455;1306;25315;-81
2022/11/05 07:31:07;;;;;;;6.30;2.40;;;;;;;;;;103467;1305;22484;-81
2022/11/05 07:33:34;;;;;;;7.90;2.70;;;;;;;;;;103546;1291;22549;-82
2022/11/05 07:36:00;;;;;;;6.40;2.10;;;;;;;;;;103442;1307;25397;-84
2022/11/05 07:38:27;;;;;;;5.90;1.50;;;;;;;;;;103441;1305;24268;-85
2022/11/05 07:40:54;;;;;;;6.40;1.90;;;;;;;;;;103512;1291;22550;-80
2022/11/05 07:43:20;;;;;;;5.10;2.20;;;;;;;;;;103427;1309;25392;-84
2022/11/05 07:45:47;;;;;;;6.60;2.60;;;;;;;;;;103496;1306;22459;-82
2022/11/05 07:48:13;;;;;;;6.30;1.90;;;;;;;;;;103462;1305;22494;-85
2022/11/05 07:50:40;;;;;;;6.00;2.40;;;;;;;;;;103493;1306;24399;-86
2022/11/05 07:53:11;;;;;;;6.60;2.30;;;;;;;;;;103528;1304;22508;-83
2022/11/05 07:55:42;;;;;;;7.90;2.50;;;;;;;;;;103456;1309;22476;-87
2022/11/05 07:58:09;;;;;;;7.50;2.90;;;;;;;;;;103558;1305;22154;-84
2022/11/05 08:00:36;;;;;;;10.80;3.20;;;;;;;;;;103482;1306;25299;-84
2022/11/05 08:03:04;;;;;;;14.60;4.80;;;;;;;;;;103488;1306;22464;-84
2022/11/05 08:05:38;;;;;;;13.50;4.80;;;;;;;;;;103481;1306;22483;-84
2022/11/05 08:08:08;;;;;;;14.10;4.90;;;;;;;;;;103475;1306;22470;-81
2022/11/05 08:10:35;;;;;;;13.70;4.80;;;;;;;;;;103493;1303;22507;-86
2022/11/05 08:13:02;;;;;;;17.20;5.50;;;;;;;;;;103589;1306;22460;-81
2022/11/05 08:15:29;;;;;;;13.00;4.70;;;;;;;;;;103694;1288;25482;-82
2022/11/05 08:17:56;;;;;;;11.20;4.30;;;;;;;;;;103507;1306;22810;-79
2022/11/05 08:20:23;;;;;;;11.90;4.50;;;;;;;;;;103434;1298;22499;-80
2022/11/05 08:22:50;;;;;;;10.00;4.10;;;;;;;;;;103458;1281;22533;-81
2022/11/05 08:25:16;;;;;;;10.10;4.40;;;;;;;;;;103459;1297;22562;-80
2022/11/05 08:27:44;;;;;;;10.70;3.50;;;;;;;;;;103541;1305;25320;-83
2022/11/05 08:30:11;;;;;;;8.10;2.60;;;;;;;;;;103324;1301;21701;-86
2022/11/05 08:32:38;;;;;;;6.80;2.50;;;;;;;;;;103749;1288;25236;-81
2022/11/05 08:35:05;;;;;;;7.20;2.70;;;;;;;;;;103510;1306;25343;-80
2022/11/05 08:37:31;;;;;;;6.00;2.00;;;;;;;;;;103520;1306;24285;-84
2022/11/05 08:39:58;;;;;;;7.00;3.20;;;;;;;;;;103431;1298;23061;-82
2022/11/05 08:42:24;;;;;;;8.80;3.20;;;;;;;;;;103417;1307;22590;-82
2022/11/05 08:44:51;;;;;;;7.60;2.20;;;;;;;;;;103469;1292;22472;-86
2022/11/05 08:47:17;;;;;;;6.40;2.10;;;;;;;;;;103530;1306;22452;-80
2022/11/05 08:49:44;;;;;;;6.50;2.10;;;;;;;;;;103669;1281;24275;-80
2022/11/05 08:52:11;;;;;;;7.90;2.50;;;;;;;;;;103354;1306;26473;-85
2022/11/05 08:54:37;;;;;;;6.90;2.40;;;;;;;;;;103432;1281;22494;-78
2022/11/05 08:57:04;;;;;;;6.90;2.20;;;;;;;;;;103504;1306;22492;-79
2022/11/05 08:59:31;;;;;;;7.00;2.40;;;;;;;;;;103624;1282;22512;-83
2022/11/05 09:01:57;;;;;;;6.90;2.00;;;;;;;;;;103525;1283;24269;-79
2022/11/05 09:04:24;;;;;;;7.90;2.30;;;;;;;;;;103509;1292;23994;-82
2022/11/05 09:06:52;;;;;;;6.60;2.20;;;;;;;;;;103514;1292;25293;-80
2022/11/05 09:09:18;;;;;;;8.00;2.40;;;;;;;;;;103473;1275;24311;-81
2022/11/05 09:11:45;;;;;;;8.50;2.10;;;;;;;;;;103476;1290;22462;-80
2022/11/05 09:14:12;;;;;;;6.20;2.40;;;;;;;;;;103483;1283;22579;-81
2022/11/05 09:16:41;;;;;;;6.50;1.80;;;;;;;;;;103560;1291;23475;-81
2022/11/05 09:19:07;;;;;;;6.70;1.90;;;;;;;;;;103486;1302;24271;-80
2022/11/05 09:21:34;;;;;;;6.60;1.90;;;;;;;;;;103521;1290;24267;-79
2022/11/05 09:24:01;;;;;;;5.10;1.60;;;;;;;;;;103826;1307;22527;-82
2022/11/05 09:26:27;;;;;;;5.50;1.50;;;;;;;;;;103547;1306;22454;-82
2022/11/05 09:28:54;;;;;;;4.50;1.30;;;;;;;;;;103503;1306;25416;-83
2022/11/05 09:31:21;;;;;;;5.00;1.70;;;;;;;;;;103606;1281;22458;-79
2022/11/05 09:33:48;;;;;;;6.00;1.50;;;;;;;;;;103596;1285;22670;-79
2022/11/05 09:36:14;;;;;;;5.80;1.90;;;;;;;;;;103779;1288;22482;-80
2022/11/05 09:38:41;;;;;;;5.90;1.60;;;;;;;;;;106958;1291;22060;-77
2022/11/05 09:41:27;;;;;;;6.70;2.00;;;;;;;;;;106875;1306;22173;-78
2022/11/05 09:43:59;;;;;;;9.40;2.80;;;;;;;;;;106884;1306;22038;-79
2022/11/05 09:46:27;;;;;;;5.90;1.50;;;;;;;;;;107034;1306;22101;-79
2022/11/05 09:49:01;;;;;;;6.70;2.30;;;;;;;;;;106944;1306;22098;-79
2022/11/05 09:51:27;;;;;;;6.70;2.00;;;;;;;;;;106880;1306;22092;-79
2022/11/05 09:53:58;;;;;;;6.40;1.80;;;;;;;;;;107328;1288;22066;-79
2022/11/05 09:56:33;;;;;;;7.00;1.90;;;;;;;;;;106955;1305;22145;-79
2022/11/05 09:59:05;;;;;;;8.30;1.60;;;;;;;;;;106949;1306;22090;-79
2022/11/05 10:01:36;;;;;;;8.60;2.30;;;;;;;;;;106939;1306;22091;-79
2022/11/05 10:04:08;;;;;;;7.00;1.80;;;;;;;;;;106931;1275;22068;-79
2022/11/05 10:06:37;;;;;;;6.10;1.70;;;;;;;;;;106854;1306;22236;-79
2022/11/05 10:09:07;;;;;;;6.00;1.30;;;;;;;;;;106871;1290;22157;-79
2022/11/05 10:11:36;;;;;;;7.20;1.70;;;;;;;;;;107016;1304;22178;-79
2022/11/05 10:14:15;;;;;;;6.60;1.80;;;;;;;;;;106902;1306;22130;-79
2022/11/05 10:16:43;;;;;;;6.70;1.90;;;;;;;;;;107075;1301;22130;-79
2022/11/05 10:19:15;;;;;;;9.90;2.20;;;;;;;;;;106977;1305;22726;-79
2022/11/05 10:21:41;;;;;;;8.30;1.90;;;;;;;;;;106918;1305;22114;-79
2022/11/05 10:24:13;;;;;;;7.30;1.60;;;;;;;;;;106896;1307;22681;-78
2022/11/05 10:26:40;;;;;;;7.90;1.60;;;;;;;;;;106945;1306;21919;-79
2022/11/05 10:29:10;;;;;;;7.80;2.00;;;;;;;;;;106941;1305;22098;-78
2022/11/05 10:31:36;;;;;;;8.90;2.50;;;;;;;;;;106922;1307;183991;-79
2022/11/05 10:34:05;;;;;;;7.20;2.00;;;;;;;;;;107301;1297;21686;-78
2022/11/05 10:36:37;;;;;;;8.20;1.70;;;;;;;;;;106965;1306;22748;-79
2022/11/05 10:39:12;;;;;;;5.40;1.30;;;;;;;;;;106969;1304;22158;-79
2022/11/05 10:41:57;;;;;;;6.40;1.80;;;;;;;;;;106965;1304;22745;-79
2022/11/05 10:44:28;;;;;;;10.00;2.90;;;;;;;;;;107032;1307;22109;-79
2022/11/05 10:47:05;;;;;;;9.90;4.00;;;;;;;;;;106929;1307;22360;-79
2022/11/05 10:49:35;;;;;;;10.50;2.80;;;;;;;;;;107034;1305;22100;-78
2022/11/05 10:52:10;;;;;;;10.50;2.90;;;;;;;;;;107301;1288;22724;-78
2022/11/05 10:54:37;;;;;;;9.00;2.30;;;;;;;;;;107037;1305;22088;-79
2022/11/05 10:57:24;;;;;;;9.20;2.20;;;;;;;;;;106987;1305;22068;-79
2022/11/05 10:59:50;;;;;;;11.70;2.80;;;;;;;;;;107080;1304;22547;-78
2022/11/05 11:02:23;;;;;;;7.30;2.30;;;;;;;;;;107076;1304;22068;-79
2022/11/05 11:04:58;;;;;;;8.80;1.90;;;;;;;;;;106903;1307;22757;-79
2022/11/05 11:07:24;;;;;;;6.30;1.50;;;;;;;;;;107047;1306;22776;-78
2022/11/05 11:09:51;;;;;;;6.20;1.80;;;;;;;;;;107250;1278;22104;-79
2022/11/05 11:12:23;;;;;;;8.90;2.00;;;;;;;;;;106911;1307;22064;-79
2022/11/05 11:15:11;;;;;;;7.30;1.70;;;;;;;;;;106922;1300;22920;-79
2022/11/05 11:17:38;;;;;;;7.40;2.10;;;;;;;;;;106863;1306;22859;-79
2022/11/05 11:20:17;;;;;;;7.50;1.60;;;;;;;;;;106914;1306;22094;-78
2022/11/05 11:22:59;;;;;;;5.60;1.50;;;;;;;;;;106987;1305;22724;-80
2022/11/05 11:25:28;;;;;;;6.60;2.10;;;;;;;;;;106964;1305;21659;-79
2022/11/05 11:27:54;;;;;;;8.70;2.40;;;;;;;;;;107155;1292;22074;-79
2022/11/05 11:30:24;;;;;;;10.90;2.80;;;;;;;;;;106944;1307;22094;-79
2022/11/05 11:32:51;;;;;;;9.80;2.90;;;;;;;;;;107178;1298;22032;-79
2022/11/05 11:35:22;;;;;;;8.60;2.70;;;;;;;;;;106990;1306;22175;-79
2022/11/05 11:37:51;;;;;;;9.80;2.60;;;;;;;;;;106930;1305;22545;-79
2022/11/05 11:40:19;;;;;;;10.60;2.80;;;;;;;;;;106928;1305;22098;-78
2022/11/05 11:42:48;;;;;;;11.20;3.50;;;;;;;;;;106961;1287;22126;-79
2022/11/05 11:45:26;;;;;;;8.70;2.50;;;;;;;;;;106923;1306;22049;-79
2022/11/05 11:47:54;;;;;;;9.90;3.50;;;;;;;;;;106933;1307;22103;-79
2022/11/05 11:50:29;;;;;;;12.10;3.80;;;;;;;;;;106930;1306;22071;-79
2022/11/05 11:53:15;;;;;;;9.70;2.40;;;;;;;;;;106998;1281;22042;-79
2022/11/05 11:56:02;;;;;;;10.40;2.20;;;;;;;;;;106883;1306;22081;-79
2022/11/05 11:58:45;;;;;;;7.40;2.40;;;;;;;;;;107230;1299;22057;-78
2022/11/05 12:01:31;;;;;;;13.40;3.10;;;;;;;;;;106931;1306;22718;-78
2022/11/05 12:04:07;;;;;;;10.50;2.80;;;;;;;;;;106955;1305;23082;-78
2022/11/05 12:06:41;;;;;;;9.60;2.90;;;;;;;;;;106981;1306;22158;-78
2022/11/05 12:09:33;;;;;;;7.80;2.20;;;;;;;;;;106925;1305;22745;-78
2022/11/05 12:12:03;;;;;;;15.20;4.90;;;;;;;;;;106880;1306;22086;-78
2022/11/05 12:14:48;;;;;;;14.40;3.80;;;;;;;;;;106842;1306;22136;-79
2022/11/05 12:17:18;;;;;;;19.00;5.70;;;;;;;;;;106875;1306;22109;-79
2022/11/05 12:19:53;;;;;;;15.40;3.20;;;;;;;;;;107202;1290;22739;-79
2022/11/05 12:22:31;;;;;;;13.30;3.00;;;;;;;;;;106884;1296;22309;-79
2022/11/05 12:25:10;;;;;;;10.00;2.70;;;;;;;;;;106908;1306;22118;-78
2022/11/05 12:27:51;;;;;;;16.30;3.70;;;;;;;;;;107127;1291;22716;-79
2022/11/05 12:30:19;;;;;;;9.60;2.70;;;;;;;;;;107123;1299;22067;-79
2022/11/05 12:32:55;;;;;;;10.40;2.50;;;;;;;;;;106934;1299;22114;-78
2022/11/05 12:35:45;;;;;;;12.80;2.50;;;;;;;;;;106872;1301;22096;-77
2022/11/05 12:38:21;;;;;;;12.50;2.90;;;;;;;;;;106881;1306;21952;-79
2022/11/05 12:41:07;;;;;;;12.30;2.60;;;;;;;;;;107097;1294;22648;-78
2022/11/05 12:43:57;;;;;;;9.20;2.40;;;;;;;;;;107230;1284;22741;-78
2022/11/05 12:46:27;;;;;;;9.10;2.50;;;;;;;;;;106839;1306;22954;-79
2022/11/05 12:48:54;;;;;;;7.70;2.20;;;;;;;;;;106866;1306;22053;-78
2022/11/05 12:51:39;;;;;;;11.50;2.10;;;;;;;;;;106904;1306;22840;-78
2022/11/05 12:54:22;;;;;;;10.30;2.20;;;;;;;;;;106913;1306;22128;-78
2022/11/05 12:56:51;;;;;;;11.90;2.30;;;;;;;;;;106828;1306;22065;-79
2022/11/05 12:59:24;;;;;;;21.00;5.30;;;;;;;;;;106893;1306;22626;-78
2022/11/05 13:01:55;;;;;;;19.90;5.70;;;;;;;;;;106930;1305;22112;-78
2022/11/05 13:04:45;;;;;;;16.60;4.00;;;;;;;;;;106870;1292;22698;-78
2022/11/05 13:07:24;;;;;;;15.00;2.60;;;;;;;;;;106837;1307;22087;-79
2022/11/05 13:09:59;;;;;;;11.20;3.00;;;;;;;;;;107152;1285;22059;-78
2022/11/05 13:12:27;;;;;;;14.00;3.30;;;;;;;;;;106816;1308;22128;-78
2022/11/05 13:14:56;;;;;;;10.70;2.20;;;;;;;;;;106836;1307;22152;-78
2022/11/05 13:17:24;;;;;;;9.80;2.20;;;;;;;;;;106843;1307;22398;-78
2022/11/05 13:19:55;;;;;;;28.20;8.40;;;;;;;;;;106899;1306;22074;-78
2022/11/05 13:22:28;;;;;;;15.00;3.40;;;;;;;;;;106870;1307;22795;-78
2022/11/05 13:24:58;;;;;;;11.50;2.80;;;;;;;;;;106891;1307;22094;-78
2022/11/05 13:27:54;;;;;;;14.70;3.20;;;;;;;;;;107052;1298;22071;-78
2022/11/05 13:30:22;;;;;;;12.70;3.30;;;;;;;;;;106650;1307;22036;-78
2022/11/05 13:32:54;;;;;;;12.30;3.00;;;;;;;;;;106780;1307;22147;-78
2022/11/05 13:35:25;;;;;;;16.40;4.50;;;;;;;;;;107093;1300;22144;-78
2022/11/05 13:40:43;;;;;;;19.70;6.40;;;;;;;;;;106798;1309;22804;-78
2022/11/05 13:43:19;;;;;;;14.80;6.00;;;;;;;;;;106756;1307;22092;-78
2022/11/05 13:45:53;;;;;;;16.30;4.30;;;;;;;;;;106777;1308;22650;-79
2022/11/05 13:48:38;;;;;;;14.00;3.40;;;;;;;;;;106858;1307;22069;-78
2022/11/05 13:51:31;;;;;;;12.10;2.60;;;;;;;;;;106880;1307;22131;-79
2022/11/05 13:54:08;;;;;;;11.20;2.50;;;;;;;;;;106186;1308;22126;-78
2022/11/05 13:56:53;;;;;;;12.20;2.50;;;;;;;;;;106255;1307;22146;-78
2022/11/05 13:59:39;;;;;;;11.50;2.50;;;;;;;;;;106230;1314;22786;-78
2022/11/05 14:02:13;;;;;;;8.90;2.60;;;;;;;;;;106465;1313;22189;-78
2022/11/05 14:04:55;;;;;;;10.90;2.80;;;;;;;;;;106194;1314;22129;-78
2022/11/05 14:07:24;;;;;;;16.50;5.20;;;;;;;;;;106395;1314;22800;-78
2022/11/05 14:09:52;;;;;;;14.00;3.50;;;;;;;;;;106278;1314;22790;-78
2022/11/05 14:12:28;;;;;;;16.20;3.70;;;;;;;;;;106587;1300;23104;-78
2022/11/05 14:14:59;;;;;;;10.90;3.30;;;;;;;;;;106098;1315;22734;-78
2022/11/05 14:17:32;;;;;;;12.70;3.30;;;;;;;;;;106148;1313;22090;-78
2022/11/05 14:20:01;;;;;;;13.00;3.40;;;;;;;;;;106291;1314;22979;-78
2022/11/05 14:22:30;;;;;;;14.50;3.70;;;;;;;;;;106414;1307;22840;-78
2022/11/05 14:24:58;;;;;;;17.90;5.50;;;;;;;;;;106400;1314;22126;-78
2022/11/05 14:27:27;;;;;;;11.30;2.90;;;;;;;;;;106338;1312;22130;-78
2022/11/05 14:29:55;;;;;;;17.40;5.30;;;;;;;;;;106110;1315;22103;-78
2022/11/05 14:32:24;;;;;;;20.60;7.40;;;;;;;;;;106836;1310;22116;-78
2022/11/05 14:34:54;;;;;;;22.60;9.80;;;;;;;;;;106830;1301;22076;-78
2022/11/05 14:37:24;;;;;;;17.40;6.30;;;;;;;;;;106683;1309;22105;-78
2022/11/05 14:39:52;;;;;;;15.20;8.20;;;;;;;;;;106708;1309;22045;-78
2022/11/05 14:42:23;;;;;;;12.50;5.40;;;;;;;;;;106976;1294;22155;-78
2022/11/05 14:45:06;;;;;;;15.00;5.70;;;;;;;;;;106759;1309;22893;-78
2022/11/05 14:47:39;;;;;;;18.30;4.30;;;;;;;;;;106659;1308;22023;-78
2022/11/05 14:50:10;;;;;;;20.70;6.30;;;;;;;;;;106789;1310;22050;-78
2022/11/05 14:52:37;;;;;;;27.40;10.90;;;;;;;;;;106847;1308;22066;-78
2022/11/05 14:55:05;;;;;;;26.80;10.60;;;;;;;;;;107136;1294;22110;-78
2022/11/05 14:57:40;;;;;;;20.00;8.10;;;;;;;;;;106668;1310;22307;-78
2022/11/05 15:00:26;;;;;;;24.80;15.20;;;;;;;;;;106760;1302;22072;-78
2022/11/05 15:03:19;;;;;;;15.50;6.60;;;;;;;;;;106710;1302;22770;-78
2022/11/05 15:05:45;;;;;;;30.50;15.40;;;;;;;;;;106688;1309;22057;-78
2022/11/05 15:08:30;;;;;;;33.80;18.90;;;;;;;;;;106752;1309;22253;-78
2022/11/05 15:11:12;;;;;;;21.90;9.10;;;;;;;;;;106876;1309;22103;-78
2022/11/05 15:14:00;;;;;;;19.60;4.60;;;;;;;;;;106780;1292;22050;-78
2022/11/05 15:16:34;;;;;;;15.40;6.00;;;;;;;;;;106685;1310;22784;-78
2022/11/05 15:19:01;;;;;;;15.50;6.30;;;;;;;;;;106811;1307;22815;-78
2022/11/05 15:21:32;;;;;;;12.60;3.40;;;;;;;;;;106711;1309;22037;-77
2022/11/05 15:24:00;;;;;;;12.30;3.50;;;;;;;;;;106638;1309;22072;-78
2022/11/05 15:26:34;;;;;;;11.30;3.30;;;;;;;;;;106739;1309;22041;-77
2022/11/05 15:29:01;;;;;;;14.90;3.40;;;;;;;;;;106714;1308;22068;-77